sensor_id;sensor_type;location;lat;lon;timestamp;P1;durP1;ratioP1;P2;durP2;ratioP2
289;SDS011;13193;48.874;9.086;2022-07-05T00:00:50;7.70;;;3.93;;
289;SDS011;13193;48.874;9.086;2022-07-05T00:03:16;11.07;;;4.00;;
289;SDS011;13193;48.874;9.086;2022-07-05T00:05:41;8.40;;;4.33;;
289;SDS011;13193;48.874;9.086;2022-07-05T00:08:07;6.47;;;4.27;;
289;SDS011;13193;48.874;9.086;2022-07-05T00:10:33;7.90;;;4.73;;
289;SDS011;13193;48.874;9.086;2022-07-05T00:13:00;13.20;;;4.23;;
289;SDS011;13193;48.874;9.086;2022-07-05T00:15:26;9.00;;;4.87;;
289;SDS011;13193;48.874;9.086;2022-07-05T00:17:51;12.63;;;4.57;;
289;SDS011;13193;48.874;9.086;2022-07-05T00:20:18;14.83;;;5.20;;
289;SDS011;13193;48.874;9.086;2022-07-05T00:22:43;7.83;;;4.30;;
289;SDS011;13193;48.874;9.086;2022-07-05T00:25:09;10.33;;;4.20;;
289;SDS011;13193;48.874;9.086;2022-07-05T00:27:35;9.13;;;4.67;;
289;SDS011;13193;48.874;9.086;2022-07-05T00:30:01;6.90;;;4.27;;
289;SDS011;13193;48.874;9.086;2022-07-05T00:32:26;11.23;;;5.13;;
289;SDS011;13193;48.874;9.086;2022-07-05T00:34:52;12.60;;;5.17;;
289;SDS011;13193;48.874;9.086;2022-07-05T00:37:18;7.47;;;5.00;;
289;SDS011;13193;48.874;9.086;2022-07-05T00:39:43;7.20;;;5.27;;
289;SDS011;13193;48.874;9.086;2022-07-05T00:42:09;9.90;;;4.97;;
289;SDS011;13193;48.874;9.086;2022-07-05T00:44:36;11.10;;;5.47;;
289;SDS011;13193;48.874;9.086;2022-07-05T00:47:04;5.47;;;4.47;;
289;SDS011;13193;48.874;9.086;2022-07-05T00:49:31;7.30;;;5.70;;
289;SDS011;13193;48.874;9.086;2022-07-05T00:51:58;8.73;;;4.83;;
289;SDS011;13193;48.874;9.086;2022-07-05T00:54:28;7.80;;;5.20;;
289;SDS011;13193;48.874;9.086;2022-07-05T00:56:58;7.73;;;4.10;;
289;SDS011;13193;48.874;9.086;2022-07-05T00:59:24;23.37;;;5.43;;
289;SDS011;13193;48.874;9.086;2022-07-05T01:01:50;13.73;;;4.90;;
289;SDS011;13193;48.874;9.086;2022-07-05T01:07:00;13.90;;;4.17;;
289;SDS011;13193;48.874;9.086;2022-07-05T01:09:29;10.37;;;4.73;;
289;SDS011;13193;48.874;9.086;2022-07-05T01:11:55;6.50;;;5.07;;
289;SDS011;13193;48.874;9.086;2022-07-05T01:14:21;9.70;;;5.13;;
289;SDS011;13193;48.874;9.086;2022-07-05T01:16:49;6.53;;;4.47;;
289;SDS011;13193;48.874;9.086;2022-07-05T01:19:15;11.60;;;5.33;;
289;SDS011;13193;48.874;9.086;2022-07-05T01:21:42;6.40;;;4.73;;
289;SDS011;13193;48.874;9.086;2022-07-05T01:24:12;7.47;;;5.30;;
289;SDS011;13193;48.874;9.086;2022-07-05T01:26:39;10.53;;;5.10;;
289;SDS011;13193;48.874;9.086;2022-07-05T01:29:06;11.53;;;5.77;;
289;SDS011;13193;48.874;9.086;2022-07-05T01:31:35;12.50;;;5.57;;
289;SDS011;13193;48.874;9.086;2022-07-05T01:34:03;7.63;;;4.97;;
289;SDS011;13193;48.874;9.086;2022-07-05T01:36:29;20.23;;;5.43;;
289;SDS011;13193;48.874;9.086;2022-07-05T01:38:55;8.73;;;5.30;;
289;SDS011;13193;48.874;9.086;2022-07-05T01:41:20;7.20;;;5.00;;
289;SDS011;13193;48.874;9.086;2022-07-05T01:43:46;8.40;;;4.50;;
289;SDS011;13193;48.874;9.086;2022-07-05T01:46:12;9.90;;;5.07;;
289;SDS011;13193;48.874;9.086;2022-07-05T01:48:40;14.17;;;6.20;;
289;SDS011;13193;48.874;9.086;2022-07-05T01:51:18;9.47;;;5.43;;
289;SDS011;13193;48.874;9.086;2022-07-05T01:53:47;8.17;;;5.43;;
289;SDS011;13193;48.874;9.086;2022-07-05T01:56:16;25.77;;;5.57;;
289;SDS011;13193;48.874;9.086;2022-07-05T01:58:42;9.30;;;5.40;;
289;SDS011;13193;48.874;9.086;2022-07-05T02:01:09;6.63;;;4.73;;
289;SDS011;13193;48.874;9.086;2022-07-05T02:03:35;9.73;;;5.20;;
289;SDS011;13193;48.874;9.086;2022-07-05T02:06:01;8.63;;;5.17;;
289;SDS011;13193;48.874;9.086;2022-07-05T02:08:30;7.03;;;5.07;;
289;SDS011;13193;48.874;9.086;2022-07-05T02:10:56;9.90;;;6.53;;
289;SDS011;13193;48.874;9.086;2022-07-05T02:13:22;8.93;;;5.37;;
289;SDS011;13193;48.874;9.086;2022-07-05T02:15:47;10.83;;;5.10;;
289;SDS011;13193;48.874;9.086;2022-07-05T02:18:13;16.60;;;6.00;;
289;SDS011;13193;48.874;9.086;2022-07-05T02:20:39;12.70;;;5.70;;
289;SDS011;13193;48.874;9.086;2022-07-05T02:23:06;8.43;;;5.03;;
289;SDS011;13193;48.874;9.086;2022-07-05T02:25:32;11.80;;;5.97;;
289;SDS011;13193;48.874;9.086;2022-07-05T02:27:58;10.40;;;5.70;;
289;SDS011;13193;48.874;9.086;2022-07-05T02:30:24;11.10;;;6.40;;
289;SDS011;13193;48.874;9.086;2022-07-05T02:32:50;9.20;;;6.23;;
289;SDS011;13193;48.874;9.086;2022-07-05T02:35:15;11.17;;;4.93;;
289;SDS011;13193;48.874;9.086;2022-07-05T02:37:42;7.40;;;5.70;;
289;SDS011;13193;48.874;9.086;2022-07-05T02:40:08;8.57;;;5.70;;
289;SDS011;13193;48.874;9.086;2022-07-05T02:42:35;11.77;;;5.00;;
289;SDS011;13193;48.874;9.086;2022-07-05T02:45:01;8.57;;;6.17;;
289;SDS011;13193;48.874;9.086;2022-07-05T02:47:29;10.30;;;6.23;;
289;SDS011;13193;48.874;9.086;2022-07-05T02:49:55;10.10;;;6.70;;
289;SDS011;13193;48.874;9.086;2022-07-05T02:52:22;12.10;;;5.20;;
289;SDS011;13193;48.874;9.086;2022-07-05T02:54:49;6.90;;;5.33;;
289;SDS011;13193;48.874;9.086;2022-07-05T02:57:15;17.83;;;6.07;;
289;SDS011;13193;48.874;9.086;2022-07-05T02:59:41;10.33;;;6.07;;
289;SDS011;13193;48.874;9.086;2022-07-05T03:02:06;15.43;;;6.30;;
289;SDS011;13193;48.874;9.086;2022-07-05T03:04:32;18.27;;;6.53;;
289;SDS011;13193;48.874;9.086;2022-07-05T03:06:57;10.47;;;6.73;;
289;SDS011;13193;48.874;9.086;2022-07-05T03:09:23;23.47;;;6.70;;
289;SDS011;13193;48.874;9.086;2022-07-05T03:11:49;15.73;;;5.60;;
289;SDS011;13193;48.874;9.086;2022-07-05T03:14:14;10.17;;;6.23;;
289;SDS011;13193;48.874;9.086;2022-07-05T03:16:40;8.80;;;5.97;;
289;SDS011;13193;48.874;9.086;2022-07-05T03:19:07;15.47;;;6.13;;
289;SDS011;13193;48.874;9.086;2022-07-05T03:21:33;11.40;;;5.90;;
289;SDS011;13193;48.874;9.086;2022-07-05T03:23:59;10.30;;;6.20;;
289;SDS011;13193;48.874;9.086;2022-07-05T03:26:24;9.13;;;6.17;;
289;SDS011;13193;48.874;9.086;2022-07-05T03:28:50;9.50;;;6.03;;
289;SDS011;13193;48.874;9.086;2022-07-05T03:31:16;17.57;;;5.97;;
289;SDS011;13193;48.874;9.086;2022-07-05T03:33:41;8.80;;;5.27;;
289;SDS011;13193;48.874;9.086;2022-07-05T03:36:07;11.20;;;6.10;;
289;SDS011;13193;48.874;9.086;2022-07-05T03:38:33;22.03;;;6.60;;
289;SDS011;13193;48.874;9.086;2022-07-05T03:40:58;8.77;;;6.50;;
289;SDS011;13193;48.874;9.086;2022-07-05T03:43:24;11.70;;;6.37;;
289;SDS011;13193;48.874;9.086;2022-07-05T03:45:50;10.40;;;6.50;;
289;SDS011;13193;48.874;9.086;2022-07-05T03:48:16;13.27;;;7.40;;
289;SDS011;13193;48.874;9.086;2022-07-05T03:50:41;18.70;;;6.73;;
289;SDS011;13193;48.874;9.086;2022-07-05T03:53:07;13.33;;;6.67;;
289;SDS011;13193;48.874;9.086;2022-07-05T03:55:32;15.23;;;6.93;;
289;SDS011;13193;48.874;9.086;2022-07-05T03:57:58;14.70;;;6.20;;
289;SDS011;13193;48.874;9.086;2022-07-05T04:00:24;12.60;;;6.60;;
289;SDS011;13193;48.874;9.086;2022-07-05T04:02:49;10.77;;;7.00;;
289;SDS011;13193;48.874;9.086;2022-07-05T04:05:15;20.00;;;6.87;;
289;SDS011;13193;48.874;9.086;2022-07-05T04:07:48;11.83;;;6.40;;
289;SDS011;13193;48.874;9.086;2022-07-05T04:10:18;13.30;;;6.70;;
289;SDS011;13193;48.874;9.086;2022-07-05T04:12:44;12.93;;;6.53;;
289;SDS011;13193;48.874;9.086;2022-07-05T04:15:10;11.27;;;6.80;;
289;SDS011;13193;48.874;9.086;2022-07-05T04:17:51;15.63;;;6.63;;
289;SDS011;13193;48.874;9.086;2022-07-05T04:20:18;11.93;;;6.90;;
289;SDS011;13193;48.874;9.086;2022-07-05T04:22:46;14.07;;;6.50;;
289;SDS011;13193;48.874;9.086;2022-07-05T04:25:12;14.77;;;6.10;;
289;SDS011;13193;48.874;9.086;2022-07-05T04:27:51;10.20;;;5.67;;
289;SDS011;13193;48.874;9.086;2022-07-05T04:30:21;10.63;;;6.67;;
289;SDS011;13193;48.874;9.086;2022-07-05T04:32:48;18.00;;;5.70;;
289;SDS011;13193;48.874;9.086;2022-07-05T04:35:14;11.73;;;5.63;;
289;SDS011;13193;48.874;9.086;2022-07-05T04:37:40;8.67;;;5.93;;
289;SDS011;13193;48.874;9.086;2022-07-05T04:40:18;12.37;;;5.73;;
289;SDS011;13193;48.874;9.086;2022-07-05T04:42:43;7.57;;;5.03;;
289;SDS011;13193;48.874;9.086;2022-07-05T04:45:10;8.90;;;5.33;;
289;SDS011;13193;48.874;9.086;2022-07-05T04:47:36;10.17;;;5.60;;
289;SDS011;13193;48.874;9.086;2022-07-05T04:50:03;8.93;;;4.80;;
289;SDS011;13193;48.874;9.086;2022-07-05T04:52:29;10.77;;;4.50;;
289;SDS011;13193;48.874;9.086;2022-07-05T04:54:55;6.20;;;5.00;;
289;SDS011;13193;48.874;9.086;2022-07-05T04:57:23;7.53;;;5.17;;
289;SDS011;13193;48.874;9.086;2022-07-05T04:59:49;7.60;;;4.33;;
289;SDS011;13193;48.874;9.086;2022-07-05T05:02:15;7.80;;;3.90;;
289;SDS011;13193;48.874;9.086;2022-07-05T05:04:40;5.97;;;3.93;;
289;SDS011;13193;48.874;9.086;2022-07-05T05:07:06;5.60;;;3.27;;
289;SDS011;13193;48.874;9.086;2022-07-05T05:09:33;6.97;;;3.30;;
289;SDS011;13193;48.874;9.086;2022-07-05T05:12:00;6.70;;;3.10;;
289;SDS011;13193;48.874;9.086;2022-07-05T05:14:27;6.50;;;3.23;;
289;SDS011;13193;48.874;9.086;2022-07-05T05:16:53;4.37;;;2.90;;
289;SDS011;13193;48.874;9.086;2022-07-05T05:19:18;7.30;;;2.97;;
289;SDS011;13193;48.874;9.086;2022-07-05T05:21:44;7.30;;;2.53;;
289;SDS011;13193;48.874;9.086;2022-07-05T05:24:10;7.03;;;2.47;;
289;SDS011;13193;48.874;9.086;2022-07-05T05:26:35;8.23;;;3.37;;
289;SDS011;13193;48.874;9.086;2022-07-05T05:29:01;5.87;;;2.47;;
289;SDS011;13193;48.874;9.086;2022-07-05T05:31:33;8.30;;;2.90;;
289;SDS011;13193;48.874;9.086;2022-07-05T05:33:58;3.90;;;2.47;;
289;SDS011;13193;48.874;9.086;2022-07-05T05:36:24;5.47;;;2.50;;
289;SDS011;13193;48.874;9.086;2022-07-05T05:38:50;5.33;;;2.80;;
289;SDS011;13193;48.874;9.086;2022-07-05T05:41:17;6.90;;;2.20;;
289;SDS011;13193;48.874;9.086;2022-07-05T05:43:42;5.13;;;2.37;;
289;SDS011;13193;48.874;9.086;2022-07-05T05:46:09;3.87;;;2.60;;
289;SDS011;13193;48.874;9.086;2022-07-05T05:48:34;3.53;;;2.03;;
289;SDS011;13193;48.874;9.086;2022-07-05T05:51:00;10.63;;;2.90;;
289;SDS011;13193;48.874;9.086;2022-07-05T05:53:28;6.30;;;2.73;;
289;SDS011;13193;48.874;9.086;2022-07-05T05:55:54;4.90;;;2.40;;
289;SDS011;13193;48.874;9.086;2022-07-05T05:58:20;3.00;;;1.80;;
289;SDS011;13193;48.874;9.086;2022-07-05T06:00:52;7.67;;;1.90;;
289;SDS011;13193;48.874;9.086;2022-07-05T06:03:18;9.23;;;1.50;;
289;SDS011;13193;48.874;9.086;2022-07-05T06:05:51;4.60;;;1.80;;
289;SDS011;13193;48.874;9.086;2022-07-05T06:08:20;4.67;;;1.60;;
289;SDS011;13193;48.874;9.086;2022-07-05T06:11:01;3.80;;;1.50;;
289;SDS011;13193;48.874;9.086;2022-07-05T06:13:30;5.43;;;1.87;;
289;SDS011;13193;48.874;9.086;2022-07-05T06:16:01;2.90;;;1.13;;
289;SDS011;13193;48.874;9.086;2022-07-05T06:18:27;5.47;;;1.43;;
289;SDS011;13193;48.874;9.086;2022-07-05T06:20:55;2.40;;;1.10;;
289;SDS011;13193;48.874;9.086;2022-07-05T06:23:23;2.00;;;1.10;;
289;SDS011;13193;48.874;9.086;2022-07-05T06:25:53;4.50;;;1.20;;
289;SDS011;13193;48.874;9.086;2022-07-05T06:28:37;12.93;;;1.80;;
289;SDS011;13193;48.874;9.086;2022-07-05T06:31:03;26.07;;;2.90;;
289;SDS011;13193;48.874;9.086;2022-07-05T06:33:28;16.53;;;2.43;;
289;SDS011;13193;48.874;9.086;2022-07-05T06:35:54;18.73;;;3.03;;
289;SDS011;13193;48.874;9.086;2022-07-05T06:38:20;13.17;;;1.80;;
289;SDS011;13193;48.874;9.086;2022-07-05T06:40:45;10.97;;;2.30;;
289;SDS011;13193;48.874;9.086;2022-07-05T06:43:13;6.70;;;1.70;;
289;SDS011;13193;48.874;9.086;2022-07-05T06:45:39;19.43;;;2.70;;
289;SDS011;13193;48.874;9.086;2022-07-05T06:48:06;5.87;;;1.37;;
289;SDS011;13193;48.874;9.086;2022-07-05T06:50:34;17.07;;;2.07;;
289;SDS011;13193;48.874;9.086;2022-07-05T06:53:02;21.87;;;2.70;;
289;SDS011;13193;48.874;9.086;2022-07-05T06:55:29;13.97;;;2.40;;
289;SDS011;13193;48.874;9.086;2022-07-05T07:00:28;9.10;;;2.17;;
289;SDS011;13193;48.874;9.086;2022-07-05T07:02:58;8.07;;;2.30;;
289;SDS011;13193;48.874;9.086;2022-07-05T07:05:24;13.60;;;2.00;;
289;SDS011;13193;48.874;9.086;2022-07-05T07:07:50;14.70;;;2.97;;
289;SDS011;13193;48.874;9.086;2022-07-05T07:10:34;5.40;;;1.43;;
289;SDS011;13193;48.874;9.086;2022-07-05T07:13:00;5.20;;;2.00;;
289;SDS011;13193;48.874;9.086;2022-07-05T07:15:31;4.60;;;3.20;;
289;SDS011;13193;48.874;9.086;2022-07-05T07:17:58;3.80;;;1.70;;
289;SDS011;13193;48.874;9.086;2022-07-05T07:20:25;11.53;;;1.97;;
289;SDS011;13193;48.874;9.086;2022-07-05T07:22:53;4.63;;;1.87;;
289;SDS011;13193;48.874;9.086;2022-07-05T07:25:19;10.03;;;1.60;;
289;SDS011;13193;48.874;9.086;2022-07-05T07:27:53;13.20;;;1.67;;
289;SDS011;13193;48.874;9.086;2022-07-05T07:30:22;7.43;;;1.67;;
289;SDS011;13193;48.874;9.086;2022-07-05T07:32:52;4.73;;;1.40;;
289;SDS011;13193;48.874;9.086;2022-07-05T07:35:23;11.80;;;1.83;;
289;SDS011;13193;48.874;9.086;2022-07-05T07:37:51;8.20;;;2.10;;
289;SDS011;13193;48.874;9.086;2022-07-05T07:40:19;1.93;;;1.40;;
289;SDS011;13193;48.874;9.086;2022-07-05T07:42:44;4.03;;;1.30;;
289;SDS011;13193;48.874;9.086;2022-07-05T07:45:10;4.30;;;1.97;;
289;SDS011;13193;48.874;9.086;2022-07-05T07:47:39;3.97;;;1.77;;
289;SDS011;13193;48.874;9.086;2022-07-05T07:50:10;3.13;;;1.70;;
289;SDS011;13193;48.874;9.086;2022-07-05T07:52:41;3.27;;;1.43;;
289;SDS011;13193;48.874;9.086;2022-07-05T07:55:19;6.73;;;1.87;;
289;SDS011;13193;48.874;9.086;2022-07-05T07:57:49;14.13;;;1.57;;
289;SDS011;13193;48.874;9.086;2022-07-05T08:00:25;7.60;;;1.60;;
289;SDS011;13193;48.874;9.086;2022-07-05T08:02:53;8.53;;;2.33;;
289;SDS011;13193;48.874;9.086;2022-07-05T08:05:21;3.10;;;2.17;;
289;SDS011;13193;48.874;9.086;2022-07-05T08:07:54;13.13;;;2.10;;
289;SDS011;13193;48.874;9.086;2022-07-05T08:10:23;8.07;;;2.13;;
289;SDS011;13193;48.874;9.086;2022-07-05T08:12:51;7.43;;;1.70;;
289;SDS011;13193;48.874;9.086;2022-07-05T08:15:17;4.70;;;1.80;;
289;SDS011;13193;48.874;9.086;2022-07-05T08:17:46;7.27;;;2.07;;
289;SDS011;13193;48.874;9.086;2022-07-05T08:20:31;5.77;;;1.90;;
289;SDS011;13193;48.874;9.086;2022-07-05T08:23:15;6.27;;;1.80;;
289;SDS011;13193;48.874;9.086;2022-07-05T08:25:41;8.37;;;1.77;;
289;SDS011;13193;48.874;9.086;2022-07-05T08:28:09;11.67;;;1.90;;
289;SDS011;13193;48.874;9.086;2022-07-05T08:30:39;4.67;;;1.90;;
289;SDS011;13193;48.874;9.086;2022-07-05T08:33:14;14.00;;;1.70;;
289;SDS011;13193;48.874;9.086;2022-07-05T08:35:40;8.37;;;1.73;;
289;SDS011;13193;48.874;9.086;2022-07-05T08:38:06;7.50;;;1.87;;
289;SDS011;13193;48.874;9.086;2022-07-05T08:40:31;6.93;;;1.77;;
289;SDS011;13193;48.874;9.086;2022-07-05T08:43:05;6.50;;;2.40;;
289;SDS011;13193;48.874;9.086;2022-07-05T08:45:32;3.63;;;1.40;;
289;SDS011;13193;48.874;9.086;2022-07-05T08:48:01;6.03;;;1.80;;
289;SDS011;13193;48.874;9.086;2022-07-05T08:50:31;7.07;;;1.87;;
289;SDS011;13193;48.874;9.086;2022-07-05T08:53:00;9.13;;;1.73;;
289;SDS011;13193;48.874;9.086;2022-07-05T08:55:27;8.53;;;1.40;;
289;SDS011;13193;48.874;9.086;2022-07-05T08:58:05;6.87;;;1.43;;
289;SDS011;13193;48.874;9.086;2022-07-05T09:00:30;2.60;;;1.53;;
289;SDS011;13193;48.874;9.086;2022-07-05T09:02:57;13.83;;;1.77;;
289;SDS011;13193;48.874;9.086;2022-07-05T09:05:23;4.93;;;1.73;;
289;SDS011;13193;48.874;9.086;2022-07-05T09:08:00;4.67;;;1.80;;
289;SDS011;13193;48.874;9.086;2022-07-05T09:10:26;8.40;;;1.37;;
289;SDS011;13193;48.874;9.086;2022-07-05T09:12:54;3.47;;;1.50;;
289;SDS011;13193;48.874;9.086;2022-07-05T09:15:21;2.47;;;1.30;;
289;SDS011;13193;48.874;9.086;2022-07-05T09:17:48;5.87;;;1.20;;
289;SDS011;13193;48.874;9.086;2022-07-05T09:20:15;2.97;;;1.20;;
289;SDS011;13193;48.874;9.086;2022-07-05T09:22:51;4.53;;;1.43;;
289;SDS011;13193;48.874;9.086;2022-07-05T09:28:03;2.60;;;0.93;;
289;SDS011;13193;48.874;9.086;2022-07-05T09:30:36;5.23;;;1.77;;
289;SDS011;13193;48.874;9.086;2022-07-05T09:33:04;3.93;;;1.23;;
289;SDS011;13193;48.874;9.086;2022-07-05T09:35:38;18.90;;;1.60;;
289;SDS011;13193;48.874;9.086;2022-07-05T09:38:05;5.97;;;1.57;;
289;SDS011;13193;48.874;9.086;2022-07-05T09:40:51;3.70;;;1.20;;
289;SDS011;13193;48.874;9.086;2022-07-05T09:43:18;7.63;;;1.60;;
289;SDS011;13193;48.874;9.086;2022-07-05T09:45:52;7.93;;;1.53;;
289;SDS011;13193;48.874;9.086;2022-07-05T09:48:29;4.20;;;1.20;;
289;SDS011;13193;48.874;9.086;2022-07-05T09:51:11;4.00;;;1.10;;
289;SDS011;13193;48.874;9.086;2022-07-05T09:53:49;20.33;;;1.73;;
289;SDS011;13193;48.874;9.086;2022-07-05T09:56:16;4.17;;;1.30;;
289;SDS011;13193;48.874;9.086;2022-07-05T09:58:42;3.43;;;1.30;;
289;SDS011;13193;48.874;9.086;2022-07-05T10:03:54;2.93;;;1.10;;
289;SDS011;13193;48.874;9.086;2022-07-05T10:06:25;12.73;;;2.90;;
289;SDS011;13193;48.874;9.086;2022-07-05T10:08:54;13.07;;;1.33;;
289;SDS011;13193;48.874;9.086;2022-07-05T10:11:20;3.20;;;1.43;;
289;SDS011;13193;48.874;9.086;2022-07-05T10:13:47;3.23;;;1.43;;
289;SDS011;13193;48.874;9.086;2022-07-05T10:16:18;11.47;;;1.30;;
289;SDS011;13193;48.874;9.086;2022-07-05T10:18:45;1.93;;;0.83;;
289;SDS011;13193;48.874;9.086;2022-07-05T10:21:13;8.53;;;1.10;;
289;SDS011;13193;48.874;9.086;2022-07-05T10:23:46;2.00;;;1.00;;
289;SDS011;13193;48.874;9.086;2022-07-05T10:26:15;2.80;;;0.93;;
289;SDS011;13193;48.874;9.086;2022-07-05T10:28:41;9.87;;;2.60;;
289;SDS011;13193;48.874;9.086;2022-07-05T10:31:11;2.50;;;1.03;;
289;SDS011;13193;48.874;9.086;2022-07-05T10:33:39;2.33;;;1.00;;
289;SDS011;13193;48.874;9.086;2022-07-05T10:36:05;2.17;;;1.20;;
289;SDS011;13193;48.874;9.086;2022-07-05T10:38:44;2.53;;;1.00;;
289;SDS011;13193;48.874;9.086;2022-07-05T10:41:15;4.40;;;1.10;;
289;SDS011;13193;48.874;9.086;2022-07-05T10:43:51;4.57;;;1.00;;
289;SDS011;13193;48.874;9.086;2022-07-05T10:46:32;3.47;;;0.80;;
289;SDS011;13193;48.874;9.086;2022-07-05T10:51:40;1.77;;;1.00;;
289;SDS011;13193;48.874;9.086;2022-07-05T10:54:06;5.13;;;1.20;;
289;SDS011;13193;48.874;9.086;2022-07-05T10:56:32;3.63;;;1.63;;
289;SDS011;13193;48.874;9.086;2022-07-05T10:59:04;2.70;;;1.23;;
289;SDS011;13193;48.874;9.086;2022-07-05T11:01:33;9.17;;;0.97;;
289;SDS011;13193;48.874;9.086;2022-07-05T11:06:30;5.90;;;1.17;;
289;SDS011;13193;48.874;9.086;2022-07-05T11:11:35;3.40;;;1.07;;
289;SDS011;13193;48.874;9.086;2022-07-05T11:14:03;3.20;;;1.10;;
289;SDS011;13193;48.874;9.086;2022-07-05T11:19:08;2.17;;;1.07;;
289;SDS011;13193;48.874;9.086;2022-07-05T11:22:20;3.43;;;0.90;;
289;SDS011;13193;48.874;9.086;2022-07-05T11:24:25;3.77;;;1.20;;
289;SDS011;13193;48.874;9.086;2022-07-05T11:26:59;2.60;;;1.20;;
289;SDS011;13193;48.874;9.086;2022-07-05T11:29:45;3.10;;;1.23;;
289;SDS011;13193;48.874;9.086;2022-07-05T11:32:15;4.47;;;1.10;;
289;SDS011;13193;48.874;9.086;2022-07-05T11:34:46;3.70;;;1.23;;
289;SDS011;13193;48.874;9.086;2022-07-05T11:39:42;3.87;;;1.00;;
289;SDS011;13193;48.874;9.086;2022-07-05T11:42:09;3.80;;;1.17;;
289;SDS011;13193;48.874;9.086;2022-07-05T11:44:36;8.70;;;1.30;;
289;SDS011;13193;48.874;9.086;2022-07-05T11:47:05;1.43;;;1.03;;
289;SDS011;13193;48.874;9.086;2022-07-05T11:49:31;1.53;;;0.77;;
289;SDS011;13193;48.874;9.086;2022-07-05T11:51:58;1.60;;;0.97;;
289;SDS011;13193;48.874;9.086;2022-07-05T11:54:25;2.63;;;1.23;;
289;SDS011;13193;48.874;9.086;2022-07-05T11:56:52;3.60;;;1.40;;
289;SDS011;13193;48.874;9.086;2022-07-05T11:59:21;7.73;;;1.30;;
289;SDS011;13193;48.874;9.086;2022-07-05T12:01:48;1.63;;;0.90;;
289;SDS011;13193;48.874;9.086;2022-07-05T12:04:21;1.50;;;1.13;;
289;SDS011;13193;48.874;9.086;2022-07-05T12:06:49;5.83;;;1.40;;
289;SDS011;13193;48.874;9.086;2022-07-05T12:09:21;4.20;;;1.77;;
289;SDS011;13193;48.874;9.086;2022-07-05T12:11:52;11.43;;;1.77;;
289;SDS011;13193;48.874;9.086;2022-07-05T12:14:49;8.03;;;2.00;;
289;SDS011;13193;48.874;9.086;2022-07-05T12:17:16;8.57;;;1.63;;
289;SDS011;13193;48.874;9.086;2022-07-05T12:19:44;4.23;;;1.63;;
289;SDS011;13193;48.874;9.086;2022-07-05T12:22:11;3.87;;;1.47;;
289;SDS011;13193;48.874;9.086;2022-07-05T12:24:38;5.00;;;1.47;;
289;SDS011;13193;48.874;9.086;2022-07-05T12:27:06;1.90;;;1.03;;
289;SDS011;13193;48.874;9.086;2022-07-05T12:29:36;10.43;;;1.30;;
289;SDS011;13193;48.874;9.086;2022-07-05T12:32:02;4.50;;;1.73;;
289;SDS011;13193;48.874;9.086;2022-07-05T12:34:29;10.10;;;1.20;;
289;SDS011;13193;48.874;9.086;2022-07-05T12:36:55;3.47;;;1.33;;
289;SDS011;13193;48.874;9.086;2022-07-05T12:39:24;2.60;;;1.00;;
289;SDS011;13193;48.874;9.086;2022-07-05T12:41:50;5.83;;;2.27;;
289;SDS011;13193;48.874;9.086;2022-07-05T12:44:20;5.60;;;1.40;;
289;SDS011;13193;48.874;9.086;2022-07-05T12:46:46;11.40;;;2.30;;
289;SDS011;13193;48.874;9.086;2022-07-05T12:49:15;4.30;;;1.37;;
289;SDS011;13193;48.874;9.086;2022-07-05T12:51:43;2.00;;;1.30;;
289;SDS011;13193;48.874;9.086;2022-07-05T12:54:19;5.50;;;1.77;;
289;SDS011;13193;48.874;9.086;2022-07-05T12:57:04;3.67;;;1.37;;
289;SDS011;13193;48.874;9.086;2022-07-05T13:00:03;6.70;;;1.33;;
289;SDS011;13193;48.874;9.086;2022-07-05T13:02:39;3.17;;;1.77;;
289;SDS011;13193;48.874;9.086;2022-07-05T13:05:07;4.37;;;1.40;;
289;SDS011;13193;48.874;9.086;2022-07-05T13:07:43;4.03;;;1.43;;
289;SDS011;13193;48.874;9.086;2022-07-05T13:10:12;5.90;;;1.60;;
289;SDS011;13193;48.874;9.086;2022-07-05T13:12:42;12.00;;;1.43;;
289;SDS011;13193;48.874;9.086;2022-07-05T13:15:07;6.40;;;1.27;;
289;SDS011;13193;48.874;9.086;2022-07-05T13:17:34;5.33;;;1.33;;
289;SDS011;13193;48.874;9.086;2022-07-05T13:19:59;4.13;;;1.30;;
289;SDS011;13193;48.874;9.086;2022-07-05T13:22:26;9.13;;;1.60;;
289;SDS011;13193;48.874;9.086;2022-07-05T13:24:51;2.53;;;1.50;;
289;SDS011;13193;48.874;9.086;2022-07-05T13:27:19;5.13;;;1.63;;
289;SDS011;13193;48.874;9.086;2022-07-05T13:29:44;5.90;;;1.80;;
289;SDS011;13193;48.874;9.086;2022-07-05T13:32:10;2.37;;;1.17;;
289;SDS011;13193;48.874;9.086;2022-07-05T13:34:35;4.20;;;1.17;;
289;SDS011;13193;48.874;9.086;2022-07-05T13:37:01;5.13;;;1.20;;
289;SDS011;13193;48.874;9.086;2022-07-05T13:39:27;5.73;;;1.40;;
289;SDS011;13193;48.874;9.086;2022-07-05T13:41:54;5.43;;;1.43;;
289;SDS011;13193;48.874;9.086;2022-07-05T13:44:20;1.80;;;0.90;;
289;SDS011;13193;48.874;9.086;2022-07-05T13:46:46;1.80;;;1.17;;
289;SDS011;13193;48.874;9.086;2022-07-05T13:49:13;3.50;;;1.20;;
289;SDS011;13193;48.874;9.086;2022-07-05T13:51:39;2.17;;;1.00;;
289;SDS011;13193;48.874;9.086;2022-07-05T13:54:04;2.27;;;1.10;;
289;SDS011;13193;48.874;9.086;2022-07-05T13:56:30;3.00;;;1.03;;
289;SDS011;13193;48.874;9.086;2022-07-05T13:59:01;4.43;;;1.40;;
289;SDS011;13193;48.874;9.086;2022-07-05T14:01:26;3.17;;;1.07;;
289;SDS011;13193;48.874;9.086;2022-07-05T14:03:54;3.20;;;1.07;;
289;SDS011;13193;48.874;9.086;2022-07-05T14:06:40;2.20;;;1.17;;
289;SDS011;13193;48.874;9.086;2022-07-05T14:09:05;2.47;;;1.10;;
289;SDS011;13193;48.874;9.086;2022-07-05T14:11:35;1.73;;;1.00;;
289;SDS011;13193;48.874;9.086;2022-07-05T14:14:00;4.53;;;1.70;;
289;SDS011;13193;48.874;9.086;2022-07-05T14:16:26;6.20;;;1.67;;
289;SDS011;13193;48.874;9.086;2022-07-05T14:18:52;3.07;;;1.33;;
289;SDS011;13193;48.874;9.086;2022-07-05T14:21:17;2.17;;;1.50;;
289;SDS011;13193;48.874;9.086;2022-07-05T14:23:44;2.20;;;1.33;;
289;SDS011;13193;48.874;9.086;2022-07-05T14:26:12;2.63;;;1.20;;
289;SDS011;13193;48.874;9.086;2022-07-05T14:28:40;2.63;;;1.10;;
289;SDS011;13193;48.874;9.086;2022-07-05T14:31:07;3.00;;;1.00;;
289;SDS011;13193;48.874;9.086;2022-07-05T14:33:35;3.80;;;1.50;;
289;SDS011;13193;48.874;9.086;2022-07-05T14:36:02;4.00;;;1.77;;
289;SDS011;13193;48.874;9.086;2022-07-05T14:38:29;3.40;;;1.03;;
289;SDS011;13193;48.874;9.086;2022-07-05T14:40:55;3.37;;;1.47;;
289;SDS011;13193;48.874;9.086;2022-07-05T14:43:20;2.50;;;1.53;;
289;SDS011;13193;48.874;9.086;2022-07-05T14:45:46;5.83;;;1.40;;
289;SDS011;13193;48.874;9.086;2022-07-05T14:48:12;2.90;;;1.23;;
289;SDS011;13193;48.874;9.086;2022-07-05T14:50:39;1.80;;;1.13;;
289;SDS011;13193;48.874;9.086;2022-07-05T14:53:06;5.33;;;1.30;;
289;SDS011;13193;48.874;9.086;2022-07-05T14:55:33;2.80;;;1.37;;
289;SDS011;13193;48.874;9.086;2022-07-05T14:57:59;1.80;;;1.20;;
289;SDS011;13193;48.874;9.086;2022-07-05T15:00:25;4.83;;;1.30;;
289;SDS011;13193;48.874;9.086;2022-07-05T15:02:50;4.23;;;1.20;;
289;SDS011;13193;48.874;9.086;2022-07-05T15:05:16;2.60;;;1.20;;
289;SDS011;13193;48.874;9.086;2022-07-05T15:07:42;3.37;;;1.63;;
289;SDS011;13193;48.874;9.086;2022-07-05T15:10:07;3.70;;;1.40;;
289;SDS011;13193;48.874;9.086;2022-07-05T15:12:34;2.43;;;1.20;;
289;SDS011;13193;48.874;9.086;2022-07-05T15:14:59;3.97;;;1.50;;
289;SDS011;13193;48.874;9.086;2022-07-05T15:17:25;2.47;;;1.47;;
289;SDS011;13193;48.874;9.086;2022-07-05T15:19:51;2.60;;;1.33;;
289;SDS011;13193;48.874;9.086;2022-07-05T15:22:16;4.53;;;1.70;;
289;SDS011;13193;48.874;9.086;2022-07-05T15:24:42;11.80;;;1.40;;
289;SDS011;13193;48.874;9.086;2022-07-05T15:27:08;3.63;;;1.50;;
289;SDS011;13193;48.874;9.086;2022-07-05T15:29:34;7.57;;;1.40;;
289;SDS011;13193;48.874;9.086;2022-07-05T15:32:01;2.90;;;1.20;;
289;SDS011;13193;48.874;9.086;2022-07-05T15:34:28;4.80;;;1.47;;
289;SDS011;13193;48.874;9.086;2022-07-05T15:36:53;4.47;;;1.30;;
289;SDS011;13193;48.874;9.086;2022-07-05T15:39:19;3.00;;;1.20;;
289;SDS011;13193;48.874;9.086;2022-07-05T15:41:44;4.73;;;1.20;;